sensor_id;sensor_type;location;lat;lon;timestamp;pressure;altitude;pressure_sealevel;temperature;humidity
74466;BME280;62916;50.044;15.938;2024-02-14T00:01:37;99610.89;;;20.20;54.35
74466;BME280;62916;50.044;15.938;2024-02-14T00:04:08;99611.76;;;20.19;54.48
74466;BME280;62916;50.044;15.938;2024-02-14T00:06:40;99615.16;;;20.17;54.56
74466;BME280;62916;50.044;15.938;2024-02-14T00:09:11;99615.70;;;20.15;54.67
74466;BME280;62916;50.044;15.938;2024-02-14T00:11:42;99616.33;;;20.12;54.60
74466;BME280;62916;50.044;15.938;2024-02-14T00:14:14;99616.35;;;20.10;54.76
74466;BME280;62916;50.044;15.938;2024-02-14T00:16:45;99614.23;;;20.09;54.71
74466;BME280;62916;50.044;15.938;2024-02-14T00:19:16;99622.98;;;20.07;54.70
74466;BME280;62916;50.044;15.938;2024-02-14T00:21:47;99618.11;;;20.05;54.67
74466;BME280;62916;50.044;15.938;2024-02-14T00:24:18;99620.12;;;20.04;54.79
74466;BME280;62916;50.044;15.938;2024-02-14T00:26:49;99618.85;;;20.02;54.81
74466;BME280;62916;50.044;15.938;2024-02-14T00:29:20;99618.48;;;20.00;54.86
74466;BME280;62916;50.044;15.938;2024-02-14T00:31:50;99622.67;;;19.98;54.91
74466;BME280;62916;50.044;15.938;2024-02-14T00:34:21;99623.80;;;19.95;54.78
74466;BME280;62916;50.044;15.938;2024-02-14T00:36:52;99628.05;;;19.93;54.94
74466;BME280;62916;50.044;15.938;2024-02-14T00:39:22;99632.23;;;19.92;54.85
74466;BME280;62916;50.044;15.938;2024-02-14T00:41:53;99637.33;;;19.90;54.96
74466;BME280;62916;50.044;15.938;2024-02-14T00:44:25;99642.13;;;19.89;55.05
74466;BME280;62916;50.044;15.938;2024-02-14T00:46:58;99643.71;;;19.87;55.04
74466;BME280;62916;50.044;15.938;2024-02-14T00:49:33;99639.55;;;19.84;54.87
74466;BME280;62916;50.044;15.938;2024-02-14T00:52:05;99638.61;;;19.84;55.06
74466;BME280;62916;50.044;15.938;2024-02-14T00:54:38;99637.49;;;19.83;55.18
74466;BME280;62916;50.044;15.938;2024-02-14T00:57:09;99639.98;;;19.81;55.17
74466;BME280;62916;50.044;15.938;2024-02-14T00:59:41;99643.16;;;19.79;55.09
74466;BME280;62916;50.044;15.938;2024-02-14T01:02:12;99647.90;;;19.78;55.14
74466;BME280;62916;50.044;15.938;2024-02-14T01:04:43;99649.21;;;19.76;55.19
74466;BME280;62916;50.044;15.938;2024-02-14T01:07:14;99650.04;;;19.75;55.18
74466;BME280;62916;50.044;15.938;2024-02-14T01:09:44;99645.07;;;19.73;55.22
74466;BME280;62916;50.044;15.938;2024-02-14T01:12:15;99644.52;;;19.72;55.24
74466;BME280;62916;50.044;15.938;2024-02-14T01:14:46;99638.91;;;19.70;55.16
74466;BME280;62916;50.044;15.938;2024-02-14T01:17:17;99637.06;;;19.69;55.21
74466;BME280;62916;50.044;15.938;2024-02-14T01:19:48;99637.98;;;19.68;55.32
74466;BME280;62916;50.044;15.938;2024-02-14T01:22:19;99630.33;;;19.67;55.45
74466;BME280;62916;50.044;15.938;2024-02-14T01:24:50;99631.27;;;19.65;55.36
74466;BME280;62916;50.044;15.938;2024-02-14T01:27:21;99635.84;;;19.64;55.41
74466;BME280;62916;50.044;15.938;2024-02-14T01:29:53;99639.76;;;19.62;55.51
74466;BME280;62916;50.044;15.938;2024-02-14T01:32:25;99643.54;;;19.61;55.49
74466;BME280;62916;50.044;15.938;2024-02-14T01:34:58;99641.18;;;19.60;55.42
74466;BME280;62916;50.044;15.938;2024-02-14T01:37:30;99646.83;;;19.58;55.54
74466;BME280;62916;50.044;15.938;2024-02-14T01:40:00;99648.24;;;19.57;55.51
74466;BME280;62916;50.044;15.938;2024-02-14T01:42:32;99648.16;;;19.56;55.52
74466;BME280;62916;50.044;15.938;2024-02-14T01:45:05;99649.35;;;19.54;55.55
74466;BME280;62916;50.044;15.938;2024-02-14T01:47:36;99647.08;;;19.52;55.61
74466;BME280;62916;50.044;15.938;2024-02-14T01:50:09;99647.61;;;19.51;55.49
74466;BME280;62916;50.044;15.938;2024-02-14T01:52:42;99645.92;;;19.50;55.75
74466;BME280;62916;50.044;15.938;2024-02-14T01:55:14;99639.98;;;19.50;55.71
74466;BME280;62916;50.044;15.938;2024-02-14T01:57:44;99635.25;;;19.49;55.84
74466;BME280;62916;50.044;15.938;2024-02-14T02:00:17;99637.55;;;19.47;55.83
74466;BME280;62916;50.044;15.938;2024-02-14T02:02:49;99638.85;;;19.46;55.76
74466;BME280;62916;50.044;15.938;2024-02-14T02:05:20;99635.48;;;19.45;55.85
74466;BME280;62916;50.044;15.938;2024-02-14T02:07:51;99634.80;;;19.45;55.84
74466;BME280;62916;50.044;15.938;2024-02-14T02:10:23;99636.78;;;19.44;55.81
74466;BME280;62916;50.044;15.938;2024-02-14T02:13:00;99635.58;;;19.43;55.80
74466;BME280;62916;50.044;15.938;2024-02-14T02:15:31;99634.86;;;19.42;55.80
74466;BME280;62916;50.044;15.938;2024-02-14T02:18:03;99633.86;;;19.41;55.92
74466;BME280;62916;50.044;15.938;2024-02-14T02:20:36;99634.09;;;19.40;55.94
74466;BME280;62916;50.044;15.938;2024-02-14T02:23:07;99636.79;;;19.40;55.80
74466;BME280;62916;50.044;15.938;2024-02-14T02:25:39;99638.55;;;19.38;55.79
74466;BME280;62916;50.044;15.938;2024-02-14T02:28:10;99638.56;;;19.37;55.86
74466;BME280;62916;50.044;15.938;2024-02-14T02:30:41;99640.65;;;19.36;55.95
74466;BME280;62916;50.044;15.938;2024-02-14T02:33:15;99643.91;;;19.36;55.91
74466;BME280;62916;50.044;15.938;2024-02-14T02:35:46;99638.42;;;19.35;55.91
74466;BME280;62916;50.044;15.938;2024-02-14T02:38:19;99634.45;;;19.33;55.88
74466;BME280;62916;50.044;15.938;2024-02-14T02:40:51;99637.55;;;19.33;55.84
74466;BME280;62916;50.044;15.938;2024-02-14T02:43:22;99637.40;;;19.32;56.00
74466;BME280;62916;50.044;15.938;2024-02-14T02:45:53;99632.96;;;19.32;55.95
74466;BME280;62916;50.044;15.938;2024-02-14T02:48:24;99633.93;;;19.30;55.89
74466;BME280;62916;50.044;15.938;2024-02-14T02:50:56;99639.06;;;19.29;55.98
74466;BME280;62916;50.044;15.938;2024-02-14T02:53:27;99636.59;;;19.28;55.99
74466;BME280;62916;50.044;15.938;2024-02-14T02:55:58;99635.20;;;19.28;56.09
74466;BME280;62916;50.044;15.938;2024-02-14T02:58:29;99642.17;;;19.28;56.09
74466;BME280;62916;50.044;15.938;2024-02-14T03:01:01;99642.64;;;19.26;56.09
74466;BME280;62916;50.044;15.938;2024-02-14T03:03:33;99639.48;;;19.26;56.06
74466;BME280;62916;50.044;15.938;2024-02-14T03:06:06;99637.41;;;19.25;56.10
74466;BME280;62916;50.044;15.938;2024-02-14T03:08:38;99629.82;;;19.25;56.10
74466;BME280;62916;50.044;15.938;2024-02-14T03:11:10;99625.33;;;19.25;56.14
74466;BME280;62916;50.044;15.938;2024-02-14T03:13:41;99625.73;;;19.24;56.13
74466;BME280;62916;50.044;15.938;2024-02-14T03:16:14;99625.04;;;19.21;56.10
74466;BME280;62916;50.044;15.938;2024-02-14T03:18:47;99628.03;;;19.21;56.06
74466;BME280;62916;50.044;15.938;2024-02-14T03:21:18;99631.77;;;19.19;56.17
74466;BME280;62916;50.044;15.938;2024-02-14T03:23:49;99634.25;;;19.17;56.15
74466;BME280;62916;50.044;15.938;2024-02-14T03:26:20;99633.08;;;19.16;56.08
74466;BME280;62916;50.044;15.938;2024-02-14T03:28:51;99635.23;;;19.14;56.17
74466;BME280;62916;50.044;15.938;2024-02-14T03:31:24;99638.19;;;19.13;56.12
74466;BME280;62916;50.044;15.938;2024-02-14T03:33:55;99636.86;;;19.11;56.10
74466;BME280;62916;50.044;15.938;2024-02-14T03:36:27;99634.06;;;19.10;56.19
74466;BME280;62916;50.044;15.938;2024-02-14T03:39:01;99630.98;;;19.08;56.20
74466;BME280;62916;50.044;15.938;2024-02-14T03:41:34;99632.80;;;19.07;56.16
74466;BME280;62916;50.044;15.938;2024-02-14T03:44:06;99631.62;;;19.06;56.20
74466;BME280;62916;50.044;15.938;2024-02-14T03:46:39;99628.94;;;19.04;56.25
74466;BME280;62916;50.044;15.938;2024-02-14T03:49:10;99631.08;;;19.04;56.32
74466;BME280;62916;50.044;15.938;2024-02-14T03:51:42;99636.27;;;19.03;56.32
74466;BME280;62916;50.044;15.938;2024-02-14T03:54:13;99637.53;;;19.01;56.30
74466;BME280;62916;50.044;15.938;2024-02-14T03:56:47;99640.30;;;19.00;56.32
74466;BME280;62916;50.044;15.938;2024-02-14T03:59:18;99643.35;;;18.99;56.39
74466;BME280;62916;50.044;15.938;2024-02-14T04:01:55;99641.16;;;18.97;56.44
74466;BME280;62916;50.044;15.938;2024-02-14T04:04:27;99650.89;;;18.96;56.36
74466;BME280;62916;50.044;15.938;2024-02-14T04:06:58;99648.83;;;18.95;56.36
74466;BME280;62916;50.044;15.938;2024-02-14T04:09:32;99647.61;;;18.94;56.40
74466;BME280;62916;50.044;15.938;2024-02-14T04:12:03;99649.13;;;18.93;56.47
74466;BME280;62916;50.044;15.938;2024-02-14T04:14:35;99648.14;;;18.92;56.46
74466;BME280;62916;50.044;15.938;2024-02-14T04:17:07;99649.83;;;18.93;56.54
74466;BME280;62916;50.044;15.938;2024-02-14T04:19:38;99654.34;;;18.91;56.57
74466;BME280;62916;50.044;15.938;2024-02-14T04:22:09;99654.63;;;18.90;56.55
74466;BME280;62916;50.044;15.938;2024-02-14T04:24:40;99657.73;;;18.90;56.61
74466;BME280;62916;50.044;15.938;2024-02-14T04:27:11;99655.32;;;18.88;56.59
74466;BME280;62916;50.044;15.938;2024-02-14T04:29:42;99655.94;;;18.87;56.70
74466;BME280;62916;50.044;15.938;2024-02-14T04:32:16;99648.64;;;18.86;56.74
74466;BME280;62916;50.044;15.938;2024-02-14T04:34:49;99649.05;;;18.85;56.72
74466;BME280;62916;50.044;15.938;2024-02-14T04:37:20;99652.94;;;18.84;56.73
74466;BME280;62916;50.044;15.938;2024-02-14T04:39:50;99653.39;;;18.84;56.81
74466;BME280;62916;50.044;15.938;2024-02-14T04:42:21;99650.98;;;18.84;56.77
74466;BME280;62916;50.044;15.938;2024-02-14T04:44:52;99651.98;;;18.83;56.71
74466;BME280;62916;50.044;15.938;2024-02-14T04:47:23;99653.67;;;18.83;56.73
74466;BME280;62916;50.044;15.938;2024-02-14T04:49:54;99656.11;;;18.82;56.80
74466;BME280;62916;50.044;15.938;2024-02-14T04:52:26;99659.50;;;18.81;56.77
74466;BME280;62916;50.044;15.938;2024-02-14T04:54:57;99655.73;;;18.80;56.85
74466;BME280;62916;50.044;15.938;2024-02-14T04:57:27;99650.35;;;18.80;56.92
74466;BME280;62916;50.044;15.938;2024-02-14T04:59:58;99648.98;;;18.81;56.91
74466;BME280;62916;50.044;15.938;2024-02-14T05:02:29;99645.84;;;18.82;57.01
74466;BME280;62916;50.044;15.938;2024-02-14T05:05:00;99644.66;;;18.85;56.64
74466;BME280;62916;50.044;15.938;2024-02-14T05:07:32;99643.20;;;18.86;56.35
74466;BME280;62916;50.044;15.938;2024-02-14T05:10:04;99647.41;;;18.86;56.06
74466;BME280;62916;50.044;15.938;2024-02-14T05:12:37;99648.32;;;18.85;55.64
74466;BME280;62916;50.044;15.938;2024-02-14T05:15:09;99649.86;;;18.83;55.58
74466;BME280;62916;50.044;15.938;2024-02-14T05:17:43;99647.67;;;18.82;55.55
74466;BME280;62916;50.044;15.938;2024-02-14T05:20:15;99648.58;;;18.83;55.56
74466;BME280;62916;50.044;15.938;2024-02-14T05:22:46;99645.53;;;18.83;55.56
74466;BME280;62916;50.044;15.938;2024-02-14T05:25:17;99640.90;;;18.82;55.56
74466;BME280;62916;50.044;15.938;2024-02-14T05:27:48;99644.33;;;18.80;55.53
74466;BME280;62916;50.044;15.938;2024-02-14T05:30:19;99642.71;;;18.79;55.53
74466;BME280;62916;50.044;15.938;2024-02-14T05:32:49;99641.36;;;18.78;55.59
74466;BME280;62916;50.044;15.938;2024-02-14T05:35:23;99640.13;;;18.78;55.53
74466;BME280;62916;50.044;15.938;2024-02-14T05:37:54;99641.21;;;18.77;55.62
74466;BME280;62916;50.044;15.938;2024-02-14T05:40:25;99637.56;;;18.75;55.52
74466;BME280;62916;50.044;15.938;2024-02-14T05:42:56;99634.77;;;18.73;55.56
74466;BME280;62916;50.044;15.938;2024-02-14T05:45:26;99634.66;;;18.73;55.45
74466;BME280;62916;50.044;15.938;2024-02-14T05:47:57;99636.66;;;18.71;55.41
74466;BME280;62916;50.044;15.938;2024-02-14T05:50:29;99642.35;;;18.70;55.48
74466;BME280;62916;50.044;15.938;2024-02-14T05:53:00;99641.08;;;18.68;55.49
74466;BME280;62916;50.044;15.938;2024-02-14T05:55:30;99639.17;;;18.66;55.40
74466;BME280;62916;50.044;15.938;2024-02-14T05:58:02;99643.05;;;18.64;55.38
74466;BME280;62916;50.044;15.938;2024-02-14T06:00:33;99646.40;;;18.63;55.32
74466;BME280;62916;50.044;15.938;2024-02-14T06:03:06;99650.14;;;18.61;55.38
74466;BME280;62916;50.044;15.938;2024-02-14T06:05:37;99650.59;;;18.60;55.34
74466;BME280;62916;50.044;15.938;2024-02-14T06:08:09;99650.38;;;18.58;55.34
74466;BME280;62916;50.044;15.938;2024-02-14T06:10:40;99653.13;;;18.56;55.39
74466;BME280;62916;50.044;15.938;2024-02-14T06:13:11;99657.39;;;18.54;55.33
74466;BME280;62916;50.044;15.938;2024-02-14T06:15:42;99655.84;;;18.53;55.37
74466;BME280;62916;50.044;15.938;2024-02-14T06:18:13;99659.68;;;18.51;55.37
74466;BME280;62916;50.044;15.938;2024-02-14T06:20:44;99663.23;;;18.50;55.35
74466;BME280;62916;50.044;15.938;2024-02-14T06:23:16;99663.14;;;18.48;55.29
74466;BME280;62916;50.044;15.938;2024-02-14T06:25:47;99669.20;;;18.47;55.38
74466;BME280;62916;50.044;15.938;2024-02-14T06:28:18;99671.06;;;18.46;55.42
74466;BME280;62916;50.044;15.938;2024-02-14T06:30:49;99674.33;;;18.44;55.44
74466;BME280;62916;50.044;15.938;2024-02-14T06:33:20;99675.17;;;18.44;55.34
74466;BME280;62916;50.044;15.938;2024-02-14T06:35:51;99680.88;;;18.42;55.35
74466;BME280;62916;50.044;15.938;2024-02-14T06:38:22;99683.65;;;18.41;55.33
74466;BME280;62916;50.044;15.938;2024-02-14T06:40:53;99681.73;;;18.40;55.38
74466;BME280;62916;50.044;15.938;2024-02-14T06:43:23;99684.45;;;18.38;55.36
74466;BME280;62916;50.044;15.938;2024-02-14T06:45:55;99685.98;;;18.36;55.38
74466;BME280;62916;50.044;15.938;2024-02-14T06:48:26;99688.34;;;18.34;55.28
74466;BME280;62916;50.044;15.938;2024-02-14T06:50:57;99679.19;;;18.33;55.40
74466;BME280;62916;50.044;15.938;2024-02-14T06:53:28;99682.64;;;18.32;55.34
74466;BME280;62916;50.044;15.938;2024-02-14T06:56:00;99678.17;;;18.30;55.32
74466;BME280;62916;50.044;15.938;2024-02-14T06:58:31;99675.48;;;18.29;55.46
74466;BME280;62916;50.044;15.938;2024-02-14T07:01:02;99677.95;;;18.28;55.33
74466;BME280;62916;50.044;15.938;2024-02-14T07:03:33;99678.63;;;18.28;55.38
74466;BME280;62916;50.044;15.938;2024-02-14T07:06:05;99678.96;;;18.27;55.33
74466;BME280;62916;50.044;15.938;2024-02-14T07:08:37;99677.05;;;18.27;55.54
74466;BME280;62916;50.044;15.938;2024-02-14T07:11:11;99677.67;;;18.27;55.37
74466;BME280;62916;50.044;15.938;2024-02-14T07:13:42;99677.95;;;18.26;55.37
74466;BME280;62916;50.044;15.938;2024-02-14T07:16:13;99682.11;;;18.26;55.27
74466;BME280;62916;50.044;15.938;2024-02-14T07:18:44;99677.56;;;18.25;55.28
74466;BME280;62916;50.044;15.938;2024-02-14T07:21:15;99674.31;;;18.25;55.24
74466;BME280;62916;50.044;15.938;2024-02-14T07:23:46;99677.17;;;18.24;55.35
74466;BME280;62916;50.044;15.938;2024-02-14T07:26:18;99674.71;;;18.24;55.32
74466;BME280;62916;50.044;15.938;2024-02-14T07:28:49;99673.69;;;18.24;55.30
74466;BME280;62916;50.044;15.938;2024-02-14T07:31:20;99670.73;;;18.23;55.24
74466;BME280;62916;50.044;15.938;2024-02-14T07:33:50;99675.73;;;18.23;55.29
74466;BME280;62916;50.044;15.938;2024-02-14T07:36:23;99671.63;;;18.23;55.31
74466;BME280;62916;50.044;15.938;2024-02-14T07:38:54;99672.73;;;18.24;55.21
74466;BME280;62916;50.044;15.938;2024-02-14T07:41:25;99669.93;;;18.25;55.21
74466;BME280;62916;50.044;15.938;2024-02-14T07:43:56;99672.68;;;18.26;55.25
74466;BME280;62916;50.044;15.938;2024-02-14T07:46:27;99675.37;;;18.28;55.23
74466;BME280;62916;50.044;15.938;2024-02-14T07:48:59;99675.70;;;18.30;55.16
74466;BME280;62916;50.044;15.938;2024-02-14T07:51:30;99670.77;;;18.33;55.19
74466;BME280;62916;50.044;15.938;2024-02-14T07:54:06;99672.66;;;18.35;55.23
74466;BME280;62916;50.044;15.938;2024-02-14T07:56:37;99673.48;;;18.40;55.28
74466;BME280;62916;50.044;15.938;2024-02-14T07:59:08;99677.14;;;18.44;55.41
74466;BME280;62916;50.044;15.938;2024-02-14T08:01:39;99681.28;;;18.48;55.10
74466;BME280;62916;50.044;15.938;2024-02-14T08:04:12;99681.20;;;18.50;55.21
74466;BME280;62916;50.044;15.938;2024-02-14T08:06:44;99680.54;;;18.54;55.16
74466;BME280;62916;50.044;15.938;2024-02-14T08:09:15;99685.48;;;18.56;55.14
74466;BME280;62916;50.044;15.938;2024-02-14T08:11:46;99688.30;;;18.59;55.20
74466;BME280;62916;50.044;15.938;2024-02-14T08:14:17;99688.67;;;18.62;55.12
74466;BME280;62916;50.044;15.938;2024-02-14T08:16:48;99686.20;;;18.65;55.15
74466;BME280;62916;50.044;15.938;2024-02-14T08:19:21;99686.25;;;18.68;55.23
74466;BME280;62916;50.044;15.938;2024-02-14T08:21:52;99688.70;;;18.71;55.27
74466;BME280;62916;50.044;15.938;2024-02-14T08:24:28;99687.13;;;18.75;55.21
74466;BME280;62916;50.044;15.938;2024-02-14T08:26:58;99691.67;;;18.78;55.20
74466;BME280;62916;50.044;15.938;2024-02-14T08:29:29;99688.51;;;18.81;55.32
74466;BME280;62916;50.044;15.938;2024-02-14T08:32:00;99691.95;;;18.83;55.12
74466;BME280;62916;50.044;15.938;2024-02-14T08:34:32;99687.71;;;18.86;55.19
74466;BME280;62916;50.044;15.938;2024-02-14T08:37:04;99687.92;;;18.88;55.18
74466;BME280;62916;50.044;15.938;2024-02-14T08:39:36;99689.86;;;18.90;55.12
74466;BME280;62916;50.044;15.938;2024-02-14T08:42:07;99688.80;;;18.92;55.08
74466;BME280;62916;50.044;15.938;2024-02-14T08:44:38;99691.03;;;18.93;54.97
74466;BME280;62916;50.044;15.938;2024-02-14T08:47:09;99690.20;;;18.95;55.05
74466;BME280;62916;50.044;15.938;2024-02-14T08:49:41;99688.23;;;18.96;55.04
74466;BME280;62916;50.044;15.938;2024-02-14T08:52:12;99686.14;;;18.98;55.09
74466;BME280;62916;50.044;15.938;2024-02-14T08:54:43;99683.59;;;19.00;54.96
74466;BME280;62916;50.044;15.938;2024-02-14T08:57:14;99685.44;;;19.01;54.86
74466;BME280;62916;50.044;15.938;2024-02-14T08:59:45;99687.12;;;19.02;54.89
74466;BME280;62916;50.044;15.938;2024-02-14T09:02:18;99684.54;;;19.02;54.85
74466;BME280;62916;50.044;15.938;2024-02-14T09:04:49;99687.63;;;19.02;54.73
74466;BME280;62916;50.044;15.938;2024-02-14T09:07:20;99691.38;;;19.02;54.77
74466;BME280;62916;50.044;15.938;2024-02-14T09:09:51;99685.14;;;19.02;54.78
74466;BME280;62916;50.044;15.938;2024-02-14T09:12:22;99683.33;;;19.03;54.78
74466;BME280;62916;50.044;15.938;2024-02-14T09:14:53;99681.87;;;19.03;54.79
74466;BME280;62916;50.044;15.938;2024-02-14T09:17:26;99681.41;;;19.03;54.75
74466;BME280;62916;50.044;15.938;2024-02-14T09:19:57;99679.50;;;19.04;54.73
74466;BME280;62916;50.044;15.938;2024-02-14T09:22:28;99676.58;;;19.03;54.66
74466;BME280;62916;50.044;15.938;2024-02-14T09:24:59;99676.67;;;19.03;54.69
74466;BME280;62916;50.044;15.938;2024-02-14T09:27:30;99675.10;;;19.04;54.74
74466;BME280;62916;50.044;15.938;2024-02-14T09:30:01;99670.33;;;19.03;54.67
74466;BME280;62916;50.044;15.938;2024-02-14T09:32:33;99672.52;;;19.03;54.62
74466;BME280;62916;50.044;15.938;2024-02-14T09:35:05;99669.99;;;19.03;54.62
74466;BME280;62916;50.044;15.938;2024-02-14T09:37:37;99672.40;;;19.04;54.75
74466;BME280;62916;50.044;15.938;2024-02-14T09:40:10;99672.67;;;19.05;54.72
74466;BME280;62916;50.044;15.938;2024-02-14T09:42:48;99670.36;;;19.05;54.63
74466;BME280;62916;50.044;15.938;2024-02-14T09:45:20;99671.44;;;19.04;54.61
74466;BME280;62916;50.044;15.938;2024-02-14T09:47:55;99673.80;;;19.02;54.64
74466;BME280;62916;50.044;15.938;2024-02-14T09:50:28;99672.48;;;19.03;54.60
74466;BME280;62916;50.044;15.938;2024-02-14T09:53:01;99667.80;;;19.04;54.67
74466;BME280;62916;50.044;15.938;2024-02-14T09:55:33;99667.52;;;19.03;54.59
74466;BME280;62916;50.044;15.938;2024-02-14T09:58:04;99667.96;;;19.04;54.64
74466;BME280;62916;50.044;15.938;2024-02-14T10:00:36;99666.56;;;19.03;54.52
74466;BME280;62916;50.044;15.938;2024-02-14T10:03:09;99666.05;;;19.04;54.61
74466;BME280;62916;50.044;15.938;2024-02-14T10:05:40;99663.67;;;19.05;54.51
74466;BME280;62916;50.044;15.938;2024-02-14T10:08:12;99662.23;;;19.04;54.48
74466;BME280;62916;50.044;15.938;2024-02-14T10:10:43;99662.50;;;19.04;54.46
74466;BME280;62916;50.044;15.938;2024-02-14T10:13:20;99660.70;;;19.04;54.46
74466;BME280;62916;50.044;15.938;2024-02-14T10:15:52;99659.16;;;19.03;54.43
74466;BME280;62916;50.044;15.938;2024-02-14T10:18:24;99659.84;;;19.02;54.35
74466;BME280;62916;50.044;15.938;2024-02-14T10:20:57;99654.27;;;19.02;54.42
74466;BME280;62916;50.044;15.938;2024-02-14T10:23:29;99649.34;;;19.02;54.45
74466;BME280;62916;50.044;15.938;2024-02-14T10:26:02;99650.52;;;19.00;54.38
74466;BME280;62916;50.044;15.938;2024-02-14T10:28:34;99650.92;;;19.00;54.47
74466;BME280;62916;50.044;15.938;2024-02-14T10:31:12;99644.13;;;19.00;54.46
74466;BME280;62916;50.044;15.938;2024-02-14T10:33:44;99644.64;;;19.00;54.42
74466;BME280;62916;50.044;15.938;2024-02-14T10:36:15;99643.74;;;18.99;54.36
74466;BME280;62916;50.044;15.938;2024-02-14T10:38:48;99638.34;;;18.98;54.34
74466;BME280;62916;50.044;15.938;2024-02-14T10:41:20;99636.95;;;18.97;54.41
74466;BME280;62916;50.044;15.938;2024-02-14T10:43:52;99628.02;;;18.96;54.34
74466;BME280;62916;50.044;15.938;2024-02-14T10:46:24;99624.26;;;18.96;54.29
74466;BME280;62916;50.044;15.938;2024-02-14T10:49:03;99614.94;;;18.94;54.26
74466;BME280;62916;50.044;15.938;2024-02-14T10:51:35;99617.13;;;18.94;54.33
74466;BME280;62916;50.044;15.938;2024-02-14T10:54:10;99615.79;;;18.94;54.36
74466;BME280;62916;50.044;15.938;2024-02-14T10:56:42;99612.96;;;18.94;54.46
74466;BME280;62916;50.044;15.938;2024-02-14T10:59:19;99613.38;;;18.94;54.43
74466;BME280;62916;50.044;15.938;2024-02-14T11:01:50;99611.02;;;18.93;54.34
74466;BME280;62916;50.044;15.938;2024-02-14T11:04:22;99611.92;;;18.93;54.39
74466;BME280;62916;50.044;15.938;2024-02-14T11:06:54;99605.65;;;18.91;54.24
74466;BME280;62916;50.044;15.938;2024-02-14T11:09:35;99603.30;;;18.91;54.32
74466;BME280;62916;50.044;15.938;2024-02-14T11:12:10;99600.23;;;18.90;54.32
74466;BME280;62916;50.044;15.938;2024-02-14T11:14:43;99595.11;;;18.89;54.31
74466;BME280;62916;50.044;15.938;2024-02-14T11:17:15;99589.61;;;18.88;54.35
74466;BME280;62916;50.044;15.938;2024-02-14T11:19:49;99587.02;;;18.88;54.32
74466;BME280;62916;50.044;15.938;2024-02-14T11:22:22;99580.11;;;18.88;54.36
74466;BME280;62916;50.044;15.938;2024-02-14T11:24:52;99579.77;;;18.88;54.28
74466;BME280;62916;50.044;15.938;2024-02-14T11:27:23;99578.09;;;18.86;54.31
74466;BME280;62916;50.044;15.938;2024-02-14T11:30:07;99577.88;;;18.86;54.33
74466;BME280;62916;50.044;15.938;2024-02-14T11:32:41;99578.61;;;18.85;54.28
74466;BME280;62916;50.044;15.938;2024-02-14T11:35:14;99577.43;;;18.85;54.35
74466;BME280;62916;50.044;15.938;2024-02-14T11:37:45;99577.98;;;18.85;54.30
74466;BME280;62916;50.044;15.938;2024-02-14T11:40:22;99574.98;;;18.84;54.24
74466;BME280;62916;50.044;15.938;2024-02-14T11:42:53;99574.98;;;18.84;54.25
74466;BME280;62916;50.044;15.938;2024-02-14T11:45:24;99571.95;;;18.84;54.31
74466;BME280;62916;50.044;15.938;2024-02-14T11:47:54;99566.52;;;18.83;54.21
74466;BME280;62916;50.044;15.938;2024-02-14T11:50:26;99561.47;;;18.82;54.28
74466;BME280;62916;50.044;15.938;2024-02-14T11:52:58;99552.16;;;18.81;54.18
74466;BME280;62916;50.044;15.938;2024-02-14T11:55:32;99550.48;;;18.80;54.27
74466;BME280;62916;50.044;15.938;2024-02-14T11:58:09;99549.08;;;18.79;54.27
74466;BME280;62916;50.044;15.938;2024-02-14T12:00:41;99547.66;;;18.79;54.23
74466;BME280;62916;50.044;15.938;2024-02-14T12:03:15;99547.00;;;18.79;54.24
74466;BME280;62916;50.044;15.938;2024-02-14T12:05:47;99550.83;;;18.79;54.27
74466;BME280;62916;50.044;15.938;2024-02-14T12:08:18;99549.88;;;18.78;54.28
74466;BME280;62916;50.044;15.938;2024-02-14T12:10:50;99550.67;;;18.75;54.29
74466;BME280;62916;50.044;15.938;2024-02-14T12:13:22;99551.84;;;18.77;54.32
74466;BME280;62916;50.044;15.938;2024-02-14T12:15:53;99548.81;;;18.76;54.24
74466;BME280;62916;50.044;15.938;2024-02-14T12:18:24;99544.83;;;18.76;54.22
74466;BME280;62916;50.044;15.938;2024-02-14T12:21:04;99539.05;;;18.74;54.24
74466;BME280;62916;50.044;15.938;2024-02-14T12:23:37;99544.84;;;18.74;54.20
74466;BME280;62916;50.044;15.938;2024-02-14T12:26:08;99541.52;;;18.74;54.28
74466;BME280;62916;50.044;15.938;2024-02-14T12:28:47;99540.35;;;18.73;54.16
74466;BME280;62916;50.044;15.938;2024-02-14T12:31:24;99538.80;;;18.73;54.17
74466;BME280;62916;50.044;15.938;2024-02-14T12:33:55;99537.91;;;18.72;54.20
74466;BME280;62916;50.044;15.938;2024-02-14T12:36:29;99539.02;;;18.72;54.17
74466;BME280;62916;50.044;15.938;2024-02-14T12:39:00;99536.28;;;18.72;54.18
74466;BME280;62916;50.044;15.938;2024-02-14T12:41:33;99535.56;;;18.72;54.17
74466;BME280;62916;50.044;15.938;2024-02-14T12:44:07;99533.98;;;18.71;54.25
74466;BME280;62916;50.044;15.938;2024-02-14T12:46:38;99534.55;;;18.72;54.20
74466;BME280;62916;50.044;15.938;2024-02-14T12:49:08;99533.37;;;18.72;54.10
74466;BME280;62916;50.044;15.938;2024-02-14T12:51:40;99537.03;;;18.71;54.13
74466;BME280;62916;50.044;15.938;2024-02-14T12:54:12;99538.21;;;18.71;54.09
74466;BME280;62916;50.044;15.938;2024-02-14T12:56:44;99534.02;;;18.69;54.10
74466;BME280;62916;50.044;15.938;2024-02-14T12:59:18;99534.64;;;18.68;54.13
74466;BME280;62916;50.044;15.938;2024-02-14T13:01:49;99536.67;;;18.67;54.14
74466;BME280;62916;50.044;15.938;2024-02-14T13:04:21;99528.02;;;18.67;54.09
74466;BME280;62916;50.044;15.938;2024-02-14T13:06:52;99526.06;;;18.65;54.06
74466;BME280;62916;50.044;15.938;2024-02-14T13:09:24;99527.60;;;18.64;54.11
74466;BME280;62916;50.044;15.938;2024-02-14T13:11:54;99528.28;;;18.63;54.14
74466;BME280;62916;50.044;15.938;2024-02-14T13:14:26;99525.98;;;18.63;54.19